sensor_id;sensor_type;location;lat;lon;timestamp;temperature;humidity
23991;DHT22;12205;50.600;4.608;2023-02-22T00:01:31;3.30;99.90
23991;DHT22;12205;50.600;4.608;2023-02-22T00:04:03;3.30;99.90
23991;DHT22;12205;50.600;4.608;2023-02-22T00:06:34;3.30;99.90
23991;DHT22;12205;50.600;4.608;2023-02-22T00:09:01;3.30;99.90
23991;DHT22;12205;50.600;4.608;2023-02-22T00:11:29;3.30;99.90
23991;DHT22;12205;50.600;4.608;2023-02-22T00:13:57;3.30;99.90
23991;DHT22;12205;50.600;4.608;2023-02-22T00:16:25;3.30;99.90
23991;DHT22;12205;50.600;4.608;2023-02-22T00:18:53;3.30;99.90
23991;DHT22;12205;50.600;4.608;2023-02-22T00:21:21;3.30;99.90
23991;DHT22;12205;50.600;4.608;2023-02-22T00:23:49;3.20;99.90
23991;DHT22;12205;50.600;4.608;2023-02-22T00:26:20;3.30;99.90
23991;DHT22;12205;50.600;4.608;2023-02-22T00:28:50;3.30;99.90
23991;DHT22;12205;50.600;4.608;2023-02-22T00:31:19;3.30;99.90
23991;DHT22;12205;50.600;4.608;2023-02-22T00:33:48;3.30;99.90
23991;DHT22;12205;50.600;4.608;2023-02-22T00:36:16;3.20;99.90
23991;DHT22;12205;50.600;4.608;2023-02-22T00:38:44;3.20;99.90
23991;DHT22;12205;50.600;4.608;2023-02-22T00:41:12;3.30;99.90
23991;DHT22;12205;50.600;4.608;2023-02-22T00:43:39;3.30;99.90
23991;DHT22;12205;50.600;4.608;2023-02-22T00:46:06;3.20;99.90
23991;DHT22;12205;50.600;4.608;2023-02-22T00:48:33;3.30;99.90
23991;DHT22;12205;50.600;4.608;2023-02-22T00:51:00;3.30;99.90
23991;DHT22;12205;50.600;4.608;2023-02-22T00:53:28;3.30;99.90
23991;DHT22;12205;50.600;4.608;2023-02-22T00:55:57;3.30;99.90
23991;DHT22;12205;50.600;4.608;2023-02-22T00:58:26;3.30;99.90
23991;DHT22;12205;50.600;4.608;2023-02-22T01:00:54;3.30;99.90
23991;DHT22;12205;50.600;4.608;2023-02-22T01:03:21;3.30;99.90
23991;DHT22;12205;50.600;4.608;2023-02-22T01:05:48;3.30;99.90
23991;DHT22;12205;50.600;4.608;2023-02-22T01:08:16;3.20;99.90
23991;DHT22;12205;50.600;4.608;2023-02-22T01:10:44;3.20;99.90
23991;DHT22;12205;50.600;4.608;2023-02-22T01:13:13;3.10;99.90
23991;DHT22;12205;50.600;4.608;2023-02-22T01:15:41;3.10;99.90
23991;DHT22;12205;50.600;4.608;2023-02-22T01:18:10;3.10;99.90
23991;DHT22;12205;50.600;4.608;2023-02-22T01:20:42;3.10;99.90
23991;DHT22;12205;50.600;4.608;2023-02-22T01:23:14;3.10;99.90
23991;DHT22;12205;50.600;4.608;2023-02-22T01:25:42;3.10;99.90
23991;DHT22;12205;50.600;4.608;2023-02-22T01:28:13;3.10;99.90
23991;DHT22;12205;50.600;4.608;2023-02-22T01:30:41;3.10;99.90
23991;DHT22;12205;50.600;4.608;2023-02-22T01:33:08;3.20;99.90
23991;DHT22;12205;50.600;4.608;2023-02-22T01:35:38;3.10;99.90
23991;DHT22;12205;50.600;4.608;2023-02-22T01:38:08;3.20;99.90
23991;DHT22;12205;50.600;4.608;2023-02-22T01:40:37;3.10;99.90
23991;DHT22;12205;50.600;4.608;2023-02-22T01:43:18;3.10;99.90
23991;DHT22;12205;50.600;4.608;2023-02-22T01:45:54;3.20;99.90
23991;DHT22;12205;50.600;4.608;2023-02-22T01:48:31;3.20;99.90
23991;DHT22;12205;50.600;4.608;2023-02-22T01:51:07;3.20;99.90
23991;DHT22;12205;50.600;4.608;2023-02-22T01:53:40;3.20;99.90
23991;DHT22;12205;50.600;4.608;2023-02-22T01:56:13;3.20;99.90
23991;DHT22;12205;50.600;4.608;2023-02-22T01:58:45;3.20;99.90
23991;DHT22;12205;50.600;4.608;2023-02-22T02:01:18;3.20;99.90
23991;DHT22;12205;50.600;4.608;2023-02-22T02:03:48;3.20;99.90
23991;DHT22;12205;50.600;4.608;2023-02-22T02:06:18;3.20;99.90
23991;DHT22;12205;50.600;4.608;2023-02-22T02:08:52;3.20;99.90
23991;DHT22;12205;50.600;4.608;2023-02-22T02:11:24;3.20;99.90
23991;DHT22;12205;50.600;4.608;2023-02-22T02:13:55;3.30;99.90
23991;DHT22;12205;50.600;4.608;2023-02-22T02:16:25;3.30;99.90
23991;DHT22;12205;50.600;4.608;2023-02-22T02:19:17;3.30;99.90
23991;DHT22;12205;50.600;4.608;2023-02-22T02:22:18;3.30;99.90
23991;DHT22;12205;50.600;4.608;2023-02-22T02:32:26;3.30;99.90
23991;DHT22;12205;50.600;4.608;2023-02-22T02:35:02;3.30;99.90
23991;DHT22;12205;50.600;4.608;2023-02-22T02:37:43;3.30;99.90
23991;DHT22;12205;50.600;4.608;2023-02-22T02:40:20;3.30;99.90
23991;DHT22;12205;50.600;4.608;2023-02-22T02:43:03;3.30;99.90
23991;DHT22;12205;50.600;4.608;2023-02-22T02:45:48;3.30;99.90
23991;DHT22;12205;50.600;4.608;2023-02-22T02:48:25;3.30;99.90
23991;DHT22;12205;50.600;4.608;2023-02-22T02:50:55;3.30;99.90
23991;DHT22;12205;50.600;4.608;2023-02-22T02:53:32;3.30;99.90
23991;DHT22;12205;50.600;4.608;2023-02-22T02:56:02;3.30;99.90
23991;DHT22;12205;50.600;4.608;2023-02-22T02:58:30;3.30;99.90
23991;DHT22;12205;50.600;4.608;2023-02-22T03:01:00;3.30;99.90
23991;DHT22;12205;50.600;4.608;2023-02-22T03:03:45;3.30;99.90
23991;DHT22;12205;50.600;4.608;2023-02-22T03:07:01;3.30;99.90
23991;DHT22;12205;50.600;4.608;2023-02-22T03:09:40;3.20;99.90
23991;DHT22;12205;50.600;4.608;2023-02-22T03:12:30;3.20;99.90
23991;DHT22;12205;50.600;4.608;2023-02-22T03:15:13;3.20;99.90
23991;DHT22;12205;50.600;4.608;2023-02-22T03:17:53;3.20;99.90
23991;DHT22;12205;50.600;4.608;2023-02-22T03:20:31;3.20;99.90
23991;DHT22;12205;50.600;4.608;2023-02-22T03:23:14;3.20;99.90
23991;DHT22;12205;50.600;4.608;2023-02-22T03:25:52;3.10;99.90
23991;DHT22;12205;50.600;4.608;2023-02-22T03:28:26;3.10;99.90
23991;DHT22;12205;50.600;4.608;2023-02-22T03:30:58;3.10;99.90
23991;DHT22;12205;50.600;4.608;2023-02-22T03:33:32;3.10;99.90
23991;DHT22;12205;50.600;4.608;2023-02-22T03:36:10;3.10;99.90
23991;DHT22;12205;50.600;4.608;2023-02-22T03:38:42;3.00;99.90
23991;DHT22;12205;50.600;4.608;2023-02-22T03:41:15;3.10;99.90
23991;DHT22;12205;50.600;4.608;2023-02-22T03:43:50;3.10;99.90
23991;DHT22;12205;50.600;4.608;2023-02-22T03:46:22;3.00;99.90
23991;DHT22;12205;50.600;4.608;2023-02-22T03:48:51;3.00;99.90
23991;DHT22;12205;50.600;4.608;2023-02-22T03:51:29;3.10;99.90
23991;DHT22;12205;50.600;4.608;2023-02-22T03:53:59;3.00;99.90
23991;DHT22;12205;50.600;4.608;2023-02-22T03:56:37;3.10;99.90
23991;DHT22;12205;50.600;4.608;2023-02-22T03:59:12;3.10;99.90
23991;DHT22;12205;50.600;4.608;2023-02-22T04:01:39;3.10;99.90
23991;DHT22;12205;50.600;4.608;2023-02-22T04:04:06;3.00;99.90
23991;DHT22;12205;50.600;4.608;2023-02-22T04:06:37;3.00;99.90
23991;DHT22;12205;50.600;4.608;2023-02-22T04:09:04;3.00;99.90
23991;DHT22;12205;50.600;4.608;2023-02-22T04:11:33;3.00;99.90
23991;DHT22;12205;50.600;4.608;2023-02-22T04:14:00;3.00;99.90
23991;DHT22;12205;50.600;4.608;2023-02-22T04:16:28;3.10;99.90
23991;DHT22;12205;50.600;4.608;2023-02-22T04:18:55;3.10;99.90
23991;DHT22;12205;50.600;4.608;2023-02-22T04:21:22;3.10;99.90
23991;DHT22;12205;50.600;4.608;2023-02-22T04:23:51;3.10;99.90
23991;DHT22;12205;50.600;4.608;2023-02-22T04:26:19;3.10;99.90
23991;DHT22;12205;50.600;4.608;2023-02-22T04:28:51;3.10;99.90
23991;DHT22;12205;50.600;4.608;2023-02-22T04:31:22;3.10;99.90
23991;DHT22;12205;50.600;4.608;2023-02-22T04:33:50;3.10;99.90
23991;DHT22;12205;50.600;4.608;2023-02-22T04:36:23;3.10;99.90
23991;DHT22;12205;50.600;4.608;2023-02-22T04:38:54;3.10;99.90
23991;DHT22;12205;50.600;4.608;2023-02-22T04:41:21;3.20;99.90
23991;DHT22;12205;50.600;4.608;2023-02-22T04:43:50;3.20;99.90
23991;DHT22;12205;50.600;4.608;2023-02-22T04:46:20;3.20;99.90
23991;DHT22;12205;50.600;4.608;2023-02-22T04:48:47;3.20;99.90
23991;DHT22;12205;50.600;4.608;2023-02-22T04:51:16;3.20;99.90
23991;DHT22;12205;50.600;4.608;2023-02-22T04:53:57;3.20;99.90
23991;DHT22;12205;50.600;4.608;2023-02-22T04:56:24;3.20;99.90
23991;DHT22;12205;50.600;4.608;2023-02-22T04:58:51;3.30;99.90
23991;DHT22;12205;50.600;4.608;2023-02-22T05:01:18;3.30;99.90
23991;DHT22;12205;50.600;4.608;2023-02-22T05:03:46;3.30;99.90
23991;DHT22;12205;50.600;4.608;2023-02-22T05:06:15;3.30;99.90
23991;DHT22;12205;50.600;4.608;2023-02-22T05:08:43;3.30;99.90
23991;DHT22;12205;50.600;4.608;2023-02-22T05:11:11;3.30;99.90
23991;DHT22;12205;50.600;4.608;2023-02-22T05:13:39;3.40;99.90
23991;DHT22;12205;50.600;4.608;2023-02-22T05:16:06;3.40;99.90
23991;DHT22;12205;50.600;4.608;2023-02-22T05:18:33;3.40;99.90
23991;DHT22;12205;50.600;4.608;2023-02-22T05:21:01;3.40;99.90
23991;DHT22;12205;50.600;4.608;2023-02-22T05:23:28;3.40;99.90
23991;DHT22;12205;50.600;4.608;2023-02-22T05:25:55;3.40;99.90
23991;DHT22;12205;50.600;4.608;2023-02-22T05:28:24;3.50;99.90
23991;DHT22;12205;50.600;4.608;2023-02-22T05:30:51;3.50;99.90
23991;DHT22;12205;50.600;4.608;2023-02-22T05:33:18;3.50;99.90
23991;DHT22;12205;50.600;4.608;2023-02-22T05:35:45;3.50;99.90
23991;DHT22;12205;50.600;4.608;2023-02-22T05:38:13;3.60;99.90
23991;DHT22;12205;50.600;4.608;2023-02-22T05:40:41;3.50;99.90
23991;DHT22;12205;50.600;4.608;2023-02-22T05:43:09;3.60;99.90
23991;DHT22;12205;50.600;4.608;2023-02-22T05:45:37;3.60;99.90
23991;DHT22;12205;50.600;4.608;2023-02-22T05:48:05;3.60;99.90
23991;DHT22;12205;50.600;4.608;2023-02-22T05:50:32;3.60;99.90
23991;DHT22;12205;50.600;4.608;2023-02-22T05:53:00;3.60;99.90
23991;DHT22;12205;50.600;4.608;2023-02-22T05:55:27;3.60;99.90
23991;DHT22;12205;50.600;4.608;2023-02-22T05:57:54;3.70;99.90
23991;DHT22;12205;50.600;4.608;2023-02-22T06:00:24;3.70;99.90
23991;DHT22;12205;50.600;4.608;2023-02-22T06:02:56;3.70;99.90
23991;DHT22;12205;50.600;4.608;2023-02-22T06:05:24;3.70;99.90
23991;DHT22;12205;50.600;4.608;2023-02-22T06:07:52;3.70;99.90
23991;DHT22;12205;50.600;4.608;2023-02-22T06:10:20;3.70;99.90
23991;DHT22;12205;50.600;4.608;2023-02-22T06:12:47;3.70;99.90
23991;DHT22;12205;50.600;4.608;2023-02-22T06:15:17;3.70;99.90
23991;DHT22;12205;50.600;4.608;2023-02-22T06:17:45;3.70;99.90
23991;DHT22;12205;50.600;4.608;2023-02-22T06:20:16;3.70;99.90
23991;DHT22;12205;50.600;4.608;2023-02-22T06:22:46;3.70;99.90
23991;DHT22;12205;50.600;4.608;2023-02-22T06:25:14;3.70;99.90
23991;DHT22;12205;50.600;4.608;2023-02-22T06:27:42;3.70;99.90
23991;DHT22;12205;50.600;4.608;2023-02-22T06:30:10;3.70;99.90
23991;DHT22;12205;50.600;4.608;2023-02-22T06:32:39;3.60;99.90
23991;DHT22;12205;50.600;4.608;2023-02-22T06:35:06;3.70;99.90
23991;DHT22;12205;50.600;4.608;2023-02-22T06:37:35;3.70;99.90
23991;DHT22;12205;50.600;4.608;2023-02-22T06:40:03;3.60;99.90
23991;DHT22;12205;50.600;4.608;2023-02-22T06:42:31;3.60;99.90
23991;DHT22;12205;50.600;4.608;2023-02-22T06:44:58;3.60;99.90
23991;DHT22;12205;50.600;4.608;2023-02-22T06:47:26;3.60;99.90
23991;DHT22;12205;50.600;4.608;2023-02-22T06:49:53;3.60;99.90
23991;DHT22;12205;50.600;4.608;2023-02-22T06:52:20;3.60;99.90
23991;DHT22;12205;50.600;4.608;2023-02-22T06:54:50;3.60;99.90
23991;DHT22;12205;50.600;4.608;2023-02-22T06:57:17;3.60;99.90
23991;DHT22;12205;50.600;4.608;2023-02-22T06:59:44;3.60;99.90
23991;DHT22;12205;50.600;4.608;2023-02-22T07:02:12;3.60;99.90
23991;DHT22;12205;50.600;4.608;2023-02-22T07:04:40;3.70;99.90
23991;DHT22;12205;50.600;4.608;2023-02-22T07:07:07;3.70;99.90
23991;DHT22;12205;50.600;4.608;2023-02-22T07:09:34;3.70;99.90
23991;DHT22;12205;50.600;4.608;2023-02-22T07:12:03;3.70;99.90
23991;DHT22;12205;50.600;4.608;2023-02-22T07:14:31;3.80;99.90
23991;DHT22;12205;50.600;4.608;2023-02-22T07:16:58;3.80;99.90
23991;DHT22;12205;50.600;4.608;2023-02-22T07:19:25;4.00;99.90
23991;DHT22;12205;50.600;4.608;2023-02-22T07:21:53;4.10;99.90
23991;DHT22;12205;50.600;4.608;2023-02-22T07:24:24;4.20;99.90
23991;DHT22;12205;50.600;4.608;2023-02-22T07:26:52;4.30;99.90
23991;DHT22;12205;50.600;4.608;2023-02-22T07:29:21;4.40;99.90
23991;DHT22;12205;50.600;4.608;2023-02-22T07:31:48;4.60;99.90
23991;DHT22;12205;50.600;4.608;2023-02-22T07:34:16;4.70;99.90
23991;DHT22;12205;50.600;4.608;2023-02-22T07:36:43;4.80;99.90
23991;DHT22;12205;50.600;4.608;2023-02-22T07:39:10;5.00;99.90
23991;DHT22;12205;50.600;4.608;2023-02-22T07:41:37;5.20;99.90
23991;DHT22;12205;50.600;4.608;2023-02-22T07:44:13;5.30;99.90
23991;DHT22;12205;50.600;4.608;2023-02-22T07:46:45;5.40;99.90
23991;DHT22;12205;50.600;4.608;2023-02-22T07:49:13;5.60;99.90
23991;DHT22;12205;50.600;4.608;2023-02-22T07:51:40;5.80;99.90
23991;DHT22;12205;50.600;4.608;2023-02-22T07:54:08;6.00;99.90
23991;DHT22;12205;50.600;4.608;2023-02-22T07:56:35;6.10;99.90
23991;DHT22;12205;50.600;4.608;2023-02-22T07:59:02;6.20;99.90
23991;DHT22;12205;50.600;4.608;2023-02-22T08:01:29;6.40;99.90
23991;DHT22;12205;50.600;4.608;2023-02-22T08:03:58;6.50;99.90
23991;DHT22;12205;50.600;4.608;2023-02-22T08:06:25;6.70;99.90
23991;DHT22;12205;50.600;4.608;2023-02-22T08:08:52;6.80;99.90
23991;DHT22;12205;50.600;4.608;2023-02-22T08:11:20;6.90;99.90
23991;DHT22;12205;50.600;4.608;2023-02-22T08:13:47;7.00;99.90
23991;DHT22;12205;50.600;4.608;2023-02-22T08:16:14;7.10;99.90
23991;DHT22;12205;50.600;4.608;2023-02-22T08:18:41;7.20;99.90
23991;DHT22;12205;50.600;4.608;2023-02-22T08:21:10;7.30;99.90
23991;DHT22;12205;50.600;4.608;2023-02-22T08:23:37;7.40;99.90
23991;DHT22;12205;50.600;4.608;2023-02-22T08:26:05;7.50;99.90
23991;DHT22;12205;50.600;4.608;2023-02-22T08:28:34;7.60;99.90
23991;DHT22;12205;50.600;4.608;2023-02-22T08:31:01;7.70;99.90
23991;DHT22;12205;50.600;4.608;2023-02-22T08:33:31;7.80;99.90
23991;DHT22;12205;50.600;4.608;2023-02-22T08:36:00;7.90;99.90
23991;DHT22;12205;50.600;4.608;2023-02-22T08:38:29;8.00;99.90
23991;DHT22;12205;50.600;4.608;2023-02-22T08:40:58;8.00;99.90
23991;DHT22;12205;50.600;4.608;2023-02-22T08:43:25;8.10;99.90
23991;DHT22;12205;50.600;4.608;2023-02-22T08:45:53;8.20;99.90
23991;DHT22;12205;50.600;4.608;2023-02-22T08:48:20;8.30;99.90
23991;DHT22;12205;50.600;4.608;2023-02-22T08:50:48;8.40;99.90
23991;DHT22;12205;50.600;4.608;2023-02-22T08:53:15;8.50;99.90
23991;DHT22;12205;50.600;4.608;2023-02-22T08:55:44;8.70;99.90
23991;DHT22;12205;50.600;4.608;2023-02-22T08:58:12;8.80;99.90
23991;DHT22;12205;50.600;4.608;2023-02-22T09:00:40;8.90;99.90
23991;DHT22;12205;50.600;4.608;2023-02-22T09:03:11;9.00;99.90
23991;DHT22;12205;50.600;4.608;2023-02-22T09:05:40;9.10;99.90
23991;DHT22;12205;50.600;4.608;2023-02-22T09:08:07;9.10;99.90
23991;DHT22;12205;50.600;4.608;2023-02-22T09:10:34;9.20;99.90
23991;DHT22;12205;50.600;4.608;2023-02-22T09:13:03;9.20;99.90
23991;DHT22;12205;50.600;4.608;2023-02-22T09:15:31;9.30;99.90
23991;DHT22;12205;50.600;4.608;2023-02-22T09:18:00;9.40;99.90
23991;DHT22;12205;50.600;4.608;2023-02-22T09:20:28;9.40;99.90
23991;DHT22;12205;50.600;4.608;2023-02-22T09:22:56;9.50;99.90
23991;DHT22;12205;50.600;4.608;2023-02-22T09:25:24;9.50;99.90
23991;DHT22;12205;50.600;4.608;2023-02-22T09:27:52;9.60;99.90
23991;DHT22;12205;50.600;4.608;2023-02-22T09:30:25;9.60;99.90
23991;DHT22;12205;50.600;4.608;2023-02-22T09:32:58;9.70;99.90
23991;DHT22;12205;50.600;4.608;2023-02-22T09:35:27;9.70;99.90
23991;DHT22;12205;50.600;4.608;2023-02-22T09:37:56;9.80;99.90
23991;DHT22;12205;50.600;4.608;2023-02-22T09:40:25;9.90;99.90
23991;DHT22;12205;50.600;4.608;2023-02-22T09:43:02;9.90;99.90
23991;DHT22;12205;50.600;4.608;2023-02-22T09:45:41;10.00;99.90
23991;DHT22;12205;50.600;4.608;2023-02-22T09:48:17;10.00;99.90
23991;DHT22;12205;50.600;4.608;2023-02-22T09:50:46;10.00;99.90
23991;DHT22;12205;50.600;4.608;2023-02-22T09:53:22;10.10;99.90
23991;DHT22;12205;50.600;4.608;2023-02-22T09:55:58;10.00;99.90
23991;DHT22;12205;50.600;4.608;2023-02-22T09:58:32;10.10;99.90
23991;DHT22;12205;50.600;4.608;2023-02-22T10:01:15;10.00;99.90
23991;DHT22;12205;50.600;4.608;2023-02-22T10:03:55;10.00;99.90
23991;DHT22;12205;50.600;4.608;2023-02-22T10:06:27;10.00;99.90
23991;DHT22;12205;50.600;4.608;2023-02-22T10:08:59;9.90;99.90
23991;DHT22;12205;50.600;4.608;2023-02-22T10:11:42;9.90;99.90
23991;DHT22;12205;50.600;4.608;2023-02-22T10:17:25;10.00;99.90
23991;DHT22;12205;50.600;4.608;2023-02-22T10:20:13;9.90;99.90
23991;DHT22;12205;50.600;4.608;2023-02-22T10:22:56;10.00;99.90
23991;DHT22;12205;50.600;4.608;2023-02-22T10:25:34;10.10;99.90
23991;DHT22;12205;50.600;4.608;2023-02-22T10:28:09;10.10;99.90
23991;DHT22;12205;50.600;4.608;2023-02-22T10:30:46;10.20;99.90
23991;DHT22;12205;50.600;4.608;2023-02-22T10:33:22;10.30;99.90
23991;DHT22;12205;50.600;4.608;2023-02-22T10:35:53;10.40;99.90
23991;DHT22;12205;50.600;4.608;2023-02-22T10:38:23;10.40;99.90
23991;DHT22;12205;50.600;4.608;2023-02-22T10:40:55;10.50;99.90
23991;DHT22;12205;50.600;4.608;2023-02-22T10:43:25;10.50;99.90
23991;DHT22;12205;50.600;4.608;2023-02-22T10:45:54;10.60;99.90
23991;DHT22;12205;50.600;4.608;2023-02-22T10:48:28;10.60;99.90
23991;DHT22;12205;50.600;4.608;2023-02-22T10:50:59;10.70;99.90
23991;DHT22;12205;50.600;4.608;2023-02-22T10:53:27;10.80;99.90
23991;DHT22;12205;50.600;4.608;2023-02-22T10:56:11;10.70;99.90
23991;DHT22;12205;50.600;4.608;2023-02-22T10:58:46;10.80;99.90
23991;DHT22;12205;50.600;4.608;2023-02-22T11:01:20;10.80;99.90
23991;DHT22;12205;50.600;4.608;2023-02-22T11:03:59;10.80;99.90
23991;DHT22;12205;50.600;4.608;2023-02-22T11:06:30;10.80;99.90
23991;DHT22;12205;50.600;4.608;2023-02-22T11:09:08;10.80;99.90
23991;DHT22;12205;50.600;4.608;2023-02-22T11:11:38;10.90;99.90
23991;DHT22;12205;50.600;4.608;2023-02-22T11:14:08;10.90;99.90
23991;DHT22;12205;50.600;4.608;2023-02-22T11:16:38;10.90;99.90
23991;DHT22;12205;50.600;4.608;2023-02-22T11:19:17;11.00;99.90
23991;DHT22;12205;50.600;4.608;2023-02-22T11:21:48;11.00;99.90
23991;DHT22;12205;50.600;4.608;2023-02-22T11:24:19;11.00;99.90
23991;DHT22;12205;50.600;4.608;2023-02-22T11:26:52;11.00;99.90
23991;DHT22;12205;50.600;4.608;2023-02-22T11:29:25;11.10;99.90
23991;DHT22;12205;50.600;4.608;2023-02-22T11:31:57;11.10;99.90
23991;DHT22;12205;50.600;4.608;2023-02-22T11:34:31;11.10;99.90
23991;DHT22;12205;50.600;4.608;2023-02-22T11:37:18;11.00;99.90
23991;DHT22;12205;50.600;4.608;2023-02-22T11:40:10;11.00;99.90
23991;DHT22;12205;50.600;4.608;2023-02-22T11:42:42;10.90;99.90
23991;DHT22;12205;50.600;4.608;2023-02-22T11:45:13;11.00;99.90
23991;DHT22;12205;50.600;4.608;2023-02-22T11:47:48;11.00;99.90
23991;DHT22;12205;50.600;4.608;2023-02-22T11:50:26;11.00;99.90
23991;DHT22;12205;50.600;4.608;2023-02-22T11:53:11;11.00;99.90
23991;DHT22;12205;50.600;4.608;2023-02-22T11:56:08;11.00;99.90
23991;DHT22;12205;50.600;4.608;2023-02-22T11:58:45;11.10;99.90
23991;DHT22;12205;50.600;4.608;2023-02-22T12:01:21;11.10;99.90
23991;DHT22;12205;50.600;4.608;2023-02-22T12:07:19;11.20;99.90
23991;DHT22;12205;50.600;4.608;2023-02-22T12:10:02;11.30;99.90
23991;DHT22;12205;50.600;4.608;2023-02-22T12:12:45;11.30;99.90
23991;DHT22;12205;50.600;4.608;2023-02-22T12:15:29;11.30;99.90
23991;DHT22;12205;50.600;4.608;2023-02-22T12:18:09;11.40;99.90
23991;DHT22;12205;50.600;4.608;2023-02-22T12:20:45;11.40;99.90
23991;DHT22;12205;50.600;4.608;2023-02-22T12:23:22;11.40;99.90
23991;DHT22;12205;50.600;4.608;2023-02-22T12:25:59;11.40;99.90
23991;DHT22;12205;50.600;4.608;2023-02-22T12:28:34;11.30;99.90
23991;DHT22;12205;50.600;4.608;2023-02-22T12:31:14;11.30;99.90
23991;DHT22;12205;50.600;4.608;2023-02-22T12:33:54;11.30;99.90
23991;DHT22;12205;50.600;4.608;2023-02-22T12:36:38;11.30;99.90
23991;DHT22;12205;50.600;4.608;2023-02-22T12:39:34;11.30;99.90
23991;DHT22;12205;50.600;4.608;2023-02-22T12:42:14;11.40;99.90
23991;DHT22;12205;50.600;4.608;2023-02-22T12:44:46;11.40;99.90
23991;DHT22;12205;50.600;4.608;2023-02-22T12:47:23;11.40;99.90
23991;DHT22;12205;50.600;4.608;2023-02-22T12:49:58;11.50;99.90
23991;DHT22;12205;50.600;4.608;2023-02-22T12:52:40;11.50;99.90
23991;DHT22;12205;50.600;4.608;2023-02-22T12:55:17;11.40;99.90
23991;DHT22;12205;50.600;4.608;2023-02-22T12:57:54;11.40;99.90
23991;DHT22;12205;50.600;4.608;2023-02-22T13:00:27;11.40;99.90
23991;DHT22;12205;50.600;4.608;2023-02-22T13:03:01;11.40;99.90
23991;DHT22;12205;50.600;4.608;2023-02-22T13:05:38;11.40;99.90
23991;DHT22;12205;50.600;4.608;2023-02-22T13:08:19;11.50;99.90
23991;DHT22;12205;50.600;4.608;2023-02-22T13:11:03;11.40;99.90
23991;DHT22;12205;50.600;4.608;2023-02-22T13:13:43;11.40;99.90
23991;DHT22;12205;50.600;4.608;2023-02-22T13:16:28;11.30;99.90
23991;DHT22;12205;50.600;4.608;2023-02-22T13:19:13;11.30;99.90
23991;DHT22;12205;50.600;4.608;2023-02-22T13:22:01;11.40;99.90
23991;DHT22;12205;50.600;4.608;2023-02-22T13:24:42;11.40;99.90
23991;DHT22;12205;50.600;4.608;2023-02-22T13:27:22;11.40;99.90
23991;DHT22;12205;50.600;4.608;2023-02-22T13:29:57;11.40;99.90
23991;DHT22;12205;50.600;4.608;2023-02-22T13:32:40;11.30;99.90
23991;DHT22;12205;50.600;4.608;2023-02-22T13:35:43;11.20;99.90
23991;DHT22;12205;50.600;4.608;2023-02-22T13:42:10;11.10;99.90
23991;DHT22;12205;50.600;4.608;2023-02-22T13:48:26;11.00;99.90
23991;DHT22;12205;50.600;4.608;2023-02-22T13:51:22;10.90;99.90
23991;DHT22;12205;50.600;4.608;2023-02-22T13:54:06;10.80;99.90
23991;DHT22;12205;50.600;4.608;2023-02-22T13:56:41;10.80;99.90
23991;DHT22;12205;50.600;4.608;2023-02-22T13:59:21;10.80;99.90
23991;DHT22;12205;50.600;4.608;2023-02-22T14:01:52;10.70;99.90
23991;DHT22;12205;50.600;4.608;2023-02-22T14:04:32;10.70;99.90
23991;DHT22;12205;50.600;4.608;2023-02-22T14:10:21;10.70;99.90
23991;DHT22;12205;50.600;4.608;2023-02-22T14:13:05;10.60;99.90
23991;DHT22;12205;50.600;4.608;2023-02-22T14:15:33;10.70;99.90
23991;DHT22;12205;50.600;4.608;2023-02-22T14:18:03;10.70;99.90
23991;DHT22;12205;50.600;4.608;2023-02-22T14:20:33;10.70;99.90
23991;DHT22;12205;50.600;4.608;2023-02-22T14:23:32;10.70;99.90
23991;DHT22;12205;50.600;4.608;2023-02-22T14:26:19;10.80;99.90
23991;DHT22;12205;50.600;4.608;2023-02-22T14:28:54;10.80;99.90
23991;DHT22;12205;50.600;4.608;2023-02-22T14:31:24;10.80;99.90
23991;DHT22;12205;50.600;4.608;2023-02-22T14:34:03;10.80;99.90
23991;DHT22;12205;50.600;4.608;2023-02-22T14:36:37;10.80;99.90
23991;DHT22;12205;50.600;4.608;2023-02-22T14:39:15;10.80;99.90
23991;DHT22;12205;50.600;4.608;2023-02-22T14:41:50;10.80;99.90
23991;DHT22;12205;50.600;4.608;2023-02-22T14:44:26;10.80;99.90
23991;DHT22;12205;50.600;4.608;2023-02-22T14:47:02;10.80;99.90
23991;DHT22;12205;50.600;4.608;2023-02-22T14:49:35;10.70;99.90
23991;DHT22;12205;50.600;4.608;2023-02-22T14:52:18;10.80;99.90
23991;DHT22;12205;50.600;4.608;2023-02-22T14:54:57;10.80;99.90
23991;DHT22;12205;50.600;4.608;2023-02-22T14:57:39;10.80;99.90
23991;DHT22;12205;50.600;4.608;2023-02-22T15:00:16;10.80;99.90
23991;DHT22;12205;50.600;4.608;2023-02-22T15:02:48;10.80;99.90
23991;DHT22;12205;50.600;4.608;2023-02-22T15:05:19;10.70;99.90
23991;DHT22;12205;50.600;4.608;2023-02-22T15:07:51;10.80;99.90
23991;DHT22;12205;50.600;4.608;2023-02-22T15:10:25;10.70;99.90
23991;DHT22;12205;50.600;4.608;2023-02-22T15:12:57;10.70;99.90
23991;DHT22;12205;50.600;4.608;2023-02-22T15:15:39;10.70;99.90
23991;DHT22;12205;50.600;4.608;2023-02-22T15:18:25;10.70;99.90
23991;DHT22;12205;50.600;4.608;2023-02-22T15:21:01;10.60;99.90
23991;DHT22;12205;50.600;4.608;2023-02-22T15:23:39;10.50;99.90
23991;DHT22;12205;50.600;4.608;2023-02-22T15:26:16;10.50;99.90
23991;DHT22;12205;50.600;4.608;2023-02-22T15:28:46;10.60;99.90
23991;DHT22;12205;50.600;4.608;2023-02-22T15:31:23;10.50;99.90
23991;DHT22;12205;50.600;4.608;2023-02-22T15:33:55;10.60;99.90
23991;DHT22;12205;50.600;4.608;2023-02-22T15:36:26;10.50;99.90
23991;DHT22;12205;50.600;4.608;2023-02-22T15:38:55;10.60;99.90
23991;DHT22;12205;50.600;4.608;2023-02-22T15:41:29;10.60;99.90
23991;DHT22;12205;50.600;4.608;2023-02-22T15:44:04;10.60;99.90
23991;DHT22;12205;50.600;4.608;2023-02-22T15:46:33;10.60;99.90
23991;DHT22;12205;50.600;4.608;2023-02-22T15:49:18;10.60;99.90
23991;DHT22;12205;50.600;4.608;2023-02-22T15:51:59;10.50;99.90
23991;DHT22;12205;50.600;4.608;2023-02-22T15:54:35;10.40;99.90
23991;DHT22;12205;50.600;4.608;2023-02-22T15:57:05;10.40;99.90
23991;DHT22;12205;50.600;4.608;2023-02-22T15:59:40;10.40;99.90
23991;DHT22;12205;50.600;4.608;2023-02-22T16:02:30;10.40;99.90
23991;DHT22;12205;50.600;4.608;2023-02-22T16:05:05;10.40;99.90
23991;DHT22;12205;50.600;4.608;2023-02-22T16:07:38;10.40;99.90
23991;DHT22;12205;50.600;4.608;2023-02-22T16:10:22;10.40;99.90
23991;DHT22;12205;50.600;4.608;2023-02-22T16:13:02;10.40;99.90
23991;DHT22;12205;50.600;4.608;2023-02-22T16:15:34;10.30;99.90
23991;DHT22;12205;50.600;4.608;2023-02-22T16:18:25;10.40;99.90
23991;DHT22;12205;50.600;4.608;2023-02-22T16:21:03;10.30;99.90
23991;DHT22;12205;50.600;4.608;2023-02-22T16:23:43;10.30;99.90
23991;DHT22;12205;50.600;4.608;2023-02-22T16:26:24;10.30;99.90
23991;DHT22;12205;50.600;4.608;2023-02-22T16:28:56;10.30;99.90
23991;DHT22;12205;50.600;4.608;2023-02-22T16:31:27;10.30;99.90
23991;DHT22;12205;50.600;4.608;2023-02-22T16:33:58;10.30;99.90
23991;DHT22;12205;50.600;4.608;2023-02-22T16:36:36;10.20;99.90
23991;DHT22;12205;50.600;4.608;2023-02-22T16:39:10;10.20;99.90
23991;DHT22;12205;50.600;4.608;2023-02-22T16:41:43;10.20;99.90